createdAt,value
2019-05-09T00:00:36.955Z,17.40
2019-05-09T00:03:04.554Z,17.40
2019-05-09T00:05:33.515Z,17.40
2019-05-09T00:08:03.459Z,17.30
2019-05-09T00:10:41.088Z,17.30
2019-05-09T00:13:00.675Z,17.30
2019-05-09T00:15:28.234Z,17.30
2019-05-09T00:17:55.754Z,17.30
2019-05-09T00:20:43.456Z,17.30
2019-05-09T00:23:10.810Z,17.30
2019-05-09T00:25:38.302Z,17.20
2019-05-09T00:28:06.413Z,17.20
2019-05-09T00:30:54.107Z,17.20
2019-05-09T00:33:26.066Z,17.10
2019-05-09T00:35:55.342Z,17.00
2019-05-09T00:38:24.084Z,17.00
2019-05-09T00:40:56.018Z,16.90
2019-05-09T00:43:21.121Z,16.90
2019-05-09T00:46:08.192Z,16.90
2019-05-09T00:48:43.888Z,16.90
2019-05-09T00:51:13.906Z,16.90
2019-05-09T00:53:40.883Z,17.00
2019-05-09T00:56:08.388Z,16.90
2019-05-09T00:58:36.958Z,16.90
2019-05-09T01:01:04.701Z,16.90
2019-05-09T01:03:33.941Z,16.90
2019-05-09T01:06:04.285Z,16.90
2019-05-09T01:08:33.405Z,16.90
2019-05-09T01:11:11.777Z,16.90
2019-05-09T01:13:33.904Z,16.90
2019-05-09T01:16:01.495Z,17.00
2019-05-09T01:18:28.741Z,16.90
2019-05-09T01:20:56.028Z,16.90
2019-05-09T01:23:23.463Z,16.90
2019-05-09T01:25:52.853Z,16.90
2019-05-09T01:28:20.011Z,17.00
2019-05-09T01:30:48.471Z,17.00
2019-05-09T01:33:28.457Z,17.00
2019-05-09T01:35:55.694Z,17.00
2019-05-09T01:38:23.325Z,17.10
2019-05-09T01:40:50.662Z,17.10
2019-05-09T01:43:17.937Z,17.10
2019-05-09T01:45:46.909Z,17.10
2019-05-09T01:48:14.409Z,17.10
2019-05-09T01:50:43.135Z,17.20
2019-05-09T01:53:13.413Z,17.20
2019-05-09T01:55:59.266Z,17.20
2019-05-09T01:58:28.579Z,17.20
2019-05-09T02:00:55.881Z,17.20
2019-05-09T02:03:23.434Z,17.10
2019-05-09T02:05:52.913Z,17.10
2019-05-09T02:08:20.135Z,17.10
2019-05-09T02:10:47.611Z,17.10
2019-05-09T02:13:14.855Z,17.10
2019-05-09T02:16:19.822Z,17.10
2019-05-09T02:19:06.579Z,17.10
2019-05-09T02:21:34.512Z,17.00
2019-05-09T02:24:03.232Z,17.10
2019-05-09T02:26:30.653Z,17.00
2019-05-09T02:28:58.027Z,16.90
2019-05-09T02:31:25.387Z,16.90
2019-05-09T02:33:54.088Z,16.90
2019-05-09T02:36:21.617Z,16.90
2019-05-09T02:38:48.989Z,16.80
2019-05-09T02:41:19.349Z,16.80
2019-05-09T02:43:45.538Z,16.70
2019-05-09T02:46:32.295Z,16.70
2019-05-09T02:48:59.706Z,16.70
2019-05-09T02:51:29.171Z,16.80
2019-05-09T02:53:58.563Z,16.80
2019-05-09T02:56:25.147Z,16.80
2019-05-09T02:59:14.718Z,16.70
2019-05-09T03:02:04.294Z,16.70
2019-05-09T03:04:31.567Z,16.80
2019-05-09T03:06:59.953Z,16.80
2019-05-09T03:09:28.707Z,16.80
2019-05-09T03:11:58.919Z,16.80
2019-05-09T03:14:28.421Z,16.80
2019-05-09T03:16:54.466Z,16.80
2019-05-09T03:19:21.712Z,16.80
2019-05-09T03:21:53.351Z,16.70
2019-05-09T03:24:20.705Z,16.70
2019-05-09T03:26:52.712Z,16.70
2019-05-09T03:29:48.596Z,16.60
2019-05-09T03:32:14.596Z,16.70
2019-05-09T03:34:41.859Z,16.60
2019-05-09T03:37:09.152Z,16.60
2019-05-09T03:39:37.713Z,16.60
2019-05-09T03:42:07.685Z,16.60
2019-05-09T03:44:34.221Z,16.70
2019-05-09T03:47:32.752Z,16.70
2019-05-09T03:50:14.395Z,16.70
2019-05-09T03:52:41.786Z,16.70
2019-05-09T03:55:11.834Z,16.60
2019-05-09T03:57:44.747Z,16.60
2019-05-09T04:00:12.360Z,16.60
2019-05-09T04:02:39.494Z,16.60
2019-05-09T04:05:08.134Z,16.40
2019-05-09T04:07:35.518Z,16.40
2019-05-09T04:10:03.499Z,16.30
2019-05-09T04:12:30.916Z,16.40
2019-05-09T04:14:58.501Z,16.40
2019-05-09T04:17:41.905Z,16.30
2019-05-09T04:20:10.078Z,16.30
2019-05-09T04:22:38.573Z,16.30
2019-05-09T04:25:07.912Z,16.20
2019-05-09T04:27:37.327Z,16.30
2019-05-09T04:30:06.458Z,16.30
2019-05-09T04:32:33.561Z,16.30
2019-05-09T04:35:00.930Z,16.20
2019-05-09T04:37:30.939Z,16.20
2019-05-09T04:39:59.572Z,16.20
2019-05-09T04:42:28.266Z,16.20
2019-05-09T04:45:03.619Z,16.20
2019-05-09T04:47:33.907Z,16.30
2019-05-09T04:50:00.143Z,16.20
2019-05-09T04:52:27.924Z,16.10
2019-05-09T04:54:57.524Z,16.00
2019-05-09T04:57:24.705Z,16.10
2019-05-09T04:59:51.945Z,16.10
2019-05-09T05:02:31.851Z,16.20
2019-05-09T05:04:59.101Z,16.20
2019-05-09T05:07:28.814Z,16.20
2019-05-09T05:09:57.639Z,16.20
2019-05-09T05:12:24.965Z,16.10
2019-05-09T05:14:52.293Z,16.00
2019-05-09T05:17:19.543Z,16.00
2019-05-09T05:19:47.607Z,16.00
2019-05-09T05:22:23.749Z,15.90
2019-05-09T05:25:09.421Z,15.90
2019-05-09T05:27:38.204Z,15.90
2019-05-09T05:30:07.482Z,15.90
2019-05-09T05:32:54.517Z,15.90
2019-05-09T05:35:28.506Z,15.80
2019-05-09T05:37:57.957Z,15.80
2019-05-09T05:40:24.878Z,15.80
2019-05-09T05:42:52.152Z,15.90
2019-05-09T05:45:19.733Z,15.90
2019-05-09T05:47:59.289Z,15.90
2019-05-09T05:50:28.126Z,15.90
2019-05-09T05:52:57.710Z,15.80
2019-05-09T05:55:27.306Z,15.90
2019-05-09T05:57:53.889Z,16.00
2019-05-09T06:00:23.041Z,16.10
2019-05-09T06:02:50.300Z,16.10
2019-05-09T06:05:18.706Z,16.10
2019-05-09T06:07:48.265Z,16.10
2019-05-09T06:10:15.413Z,16.20
2019-05-09T06:12:42.796Z,16.20
2019-05-09T06:15:10.230Z,16.20
2019-05-09T06:17:38.189Z,16.30
2019-05-09T06:20:08.687Z,16.40
2019-05-09T06:22:34.993Z,16.50
2019-05-09T06:25:02.585Z,16.60
2019-05-09T06:27:29.816Z,16.60
2019-05-09T06:29:58.188Z,16.70
2019-05-09T06:32:27.792Z,16.70
2019-05-09T06:34:54.771Z,16.60
2019-05-09T06:37:22.012Z,16.60
2019-05-09T06:39:49.357Z,16.50
2019-05-09T06:42:18.100Z,16.50
2019-05-09T06:45:07.570Z,16.50
2019-05-09T06:47:38.128Z,16.40
2019-05-09T06:50:08.287Z,16.40
2019-05-09T06:52:37.542Z,16.40
2019-05-09T06:55:09.634Z,16.40
2019-05-09T06:57:40.078Z,16.50
2019-05-09T07:00:11.383Z,16.50
2019-05-09T07:02:43.751Z,16.50
2019-05-09T07:05:19.325Z,16.60
2019-05-09T07:07:53.950Z,16.70
2019-05-09T07:10:21.393Z,16.80
2019-05-09T07:12:48.763Z,16.70
2019-05-09T07:15:17.756Z,16.80
2019-05-09T07:17:45.325Z,16.80
2019-05-09T07:20:12.768Z,16.80
2019-05-09T07:22:53.998Z,16.90
2019-05-09T07:25:39.384Z,16.80
2019-05-09T07:28:07.662Z,16.80
2019-05-09T07:31:03.600Z,16.80
2019-05-09T07:33:58.773Z,16.80
2019-05-09T07:36:27.258Z,16.70
2019-05-09T07:38:54.287Z,16.80
2019-05-09T07:41:21.521Z,16.80
2019-05-09T07:43:48.930Z,16.90
2019-05-09T07:46:33.565Z,16.90
2019-05-09T07:49:03.276Z,17.10
2019-05-09T07:51:30.529Z,17.20
2019-05-09T07:53:58.935Z,17.20
2019-05-09T07:56:28.505Z,17.20
2019-05-09T07:58:55.556Z,17.20
2019-05-09T08:01:22.783Z,17.20
2019-05-09T08:03:50.154Z,17.30
2019-05-09T08:06:18.369Z,17.30
2019-05-09T08:08:47.629Z,17.30
2019-05-09T08:11:15.109Z,17.30
2019-05-09T08:13:42.574Z,17.20
2019-05-09T08:16:14.139Z,17.20
2019-05-09T08:18:38.906Z,17.20
2019-05-09T08:21:08.259Z,17.20
2019-05-09T08:23:35.235Z,17.20
2019-05-09T08:26:04.592Z,17.30
2019-05-09T08:28:31.745Z,17.30
2019-05-09T08:30:59.008Z,17.40
2019-05-09T08:33:28.558Z,17.40
2019-05-09T08:35:55.326Z,17.40
2019-05-09T08:38:23.626Z,17.40
2019-05-09T08:41:09.013Z,17.40
2019-05-09T08:43:37.743Z,17.50
2019-05-09T08:46:05.163Z,17.60
2019-05-09T08:48:32.526Z,17.60
2019-05-09T08:51:01.540Z,17.70
2019-05-09T08:53:28.817Z,17.70
2019-05-09T08:55:58.050Z,17.70
2019-05-09T08:58:27.629Z,17.80
2019-05-09T09:00:54.181Z,17.80
2019-05-09T09:03:21.444Z,17.70
2019-05-09T09:05:48.751Z,17.80
2019-05-09T09:08:18.129Z,17.90
2019-05-09T09:10:45.029Z,18.00
2019-05-09T09:13:12.287Z,18.00
2019-05-09T09:16:05.175Z,18.00
2019-05-09T09:18:08.942Z,18.10
2019-05-09T09:20:37.981Z,18.20
2019-05-09T09:23:05.481Z,18.30
2019-05-09T09:25:32.814Z,18.30
2019-05-09T09:28:00.060Z,18.50
2019-05-09T09:30:29.342Z,18.60
2019-05-09T09:32:58.558Z,18.60
2019-05-09T09:35:27.817Z,18.70
2019-05-09T09:37:58.015Z,18.80
2019-05-09T09:40:27.691Z,18.80
2019-05-09T09:42:54.560Z,18.80
2019-05-09T09:45:21.907Z,18.80
2019-05-09T09:47:49.142Z,18.90
2019-05-09T09:50:17.864Z,18.90
2019-05-09T09:52:45.245Z,18.90
2019-05-09T09:55:13.087Z,19.00
2019-05-09T09:57:40.451Z,19.00
2019-05-09T10:00:31.341Z,19.10
2019-05-09T10:02:58.796Z,19.10
2019-05-09T10:05:27.819Z,19.30
2019-05-09T10:07:55.121Z,19.30
2019-05-09T10:10:33.954Z,19.40
2019-05-09T10:13:03.664Z,19.40
2019-05-09T10:16:05.108Z,19.40
2019-05-09T10:18:54.745Z,19.40
2019-05-09T10:21:31.415Z,19.30
2019-05-09T10:23:58.649Z,19.50
2019-05-09T10:26:28.168Z,19.60
2019-05-09T10:28:56.724Z,19.60
2019-05-09T10:31:24.107Z,19.60
2019-05-09T10:33:51.332Z,19.60
2019-05-09T10:36:18.588Z,19.60
2019-05-09T10:38:47.807Z,19.70
2019-05-09T10:41:15.368Z,19.80
2019-05-09T10:43:50.638Z,19.80
2019-05-09T10:46:52.093Z,19.80
2019-05-09T10:49:08.330Z,19.90
2019-05-09T10:51:34.970Z,19.90
2019-05-09T10:54:02.463Z,20.00
2019-05-09T10:56:29.794Z,20.00
2019-05-09T10:58:58.441Z,20.10
2019-05-09T11:01:28.668Z,20.20
2019-05-09T11:03:55.280Z,20.20
2019-05-09T11:06:38.298Z,20.30
2019-05-09T11:09:08.586Z,20.40
2019-05-09T11:11:35.560Z,20.50
2019-05-09T11:14:03.023Z,20.40
2019-05-09T11:16:41.749Z,20.40
2019-05-09T11:19:00.216Z,20.50
2019-05-09T11:21:28.524Z,20.50
2019-05-09T11:23:58.373Z,20.70
2019-05-09T11:26:25.179Z,20.70
2019-05-09T11:28:52.454Z,21.00
2019-05-09T11:31:20.090Z,21.20
2019-05-09T11:33:48.447Z,21.50
2019-05-09T11:36:20.760Z,21.70
2019-05-09T11:38:45.522Z,21.80
2019-05-09T11:41:12.875Z,21.80
2019-05-09T11:43:40.100Z,21.90
2019-05-09T11:46:10.223Z,22.00
2019-05-09T11:48:38.127Z,22.20
2019-05-09T11:51:05.700Z,22.30
2019-05-09T11:53:32.948Z,22.30
2019-05-09T11:56:00.195Z,22.20
2019-05-09T11:58:28.616Z,22.30
2019-05-09T12:00:55.888Z,22.30
2019-05-09T12:03:23.239Z,22.20
2019-05-09T12:05:50.483Z,22.20
2019-05-09T12:08:17.816Z,22.20
2019-05-09T12:10:46.187Z,22.20
2019-05-09T12:13:13.404Z,22.10
2019-05-09T12:15:40.681Z,22.10
2019-05-09T12:18:10.898Z,22.20
2019-05-09T12:20:37.509Z,22.20
2019-05-09T12:23:04.860Z,22.20
2019-05-09T12:25:32.083Z,22.20
2019-05-09T12:27:59.306Z,22.20
2019-05-09T12:30:28.491Z,22.20
2019-05-09T12:32:58.596Z,22.20
2019-05-09T12:35:24.966Z,22.20
2019-05-09T12:37:52.320Z,22.30
2019-05-09T12:40:20.211Z,22.30
2019-05-09T12:42:49.976Z,22.30
2019-05-09T12:45:17.980Z,22.30
2019-05-09T12:47:45.415Z,22.40
2019-05-09T12:50:13.035Z,22.40
2019-05-09T12:52:40.277Z,22.40
2019-05-09T12:55:08.289Z,22.30
2019-05-09T12:57:38.430Z,22.40
2019-05-09T13:00:05.444Z,22.40
2019-05-09T13:02:32.830Z,22.40
2019-05-09T13:05:00.083Z,22.50
2019-05-09T13:07:29.770Z,22.50
2019-05-09T13:09:58.217Z,22.50
2019-05-09T13:12:25.463Z,22.50
2019-05-09T13:14:52.706Z,22.50
2019-05-09T13:17:40.682Z,22.40
2019-05-09T13:20:09.591Z,22.50
2019-05-09T13:22:36.841Z,22.50
2019-05-09T13:25:04.422Z,22.50
2019-05-09T13:27:32.225Z,22.50
2019-05-09T13:29:59.775Z,22.50
2019-05-09T13:32:27.974Z,22.60
2019-05-09T13:34:57.644Z,22.60
2019-05-09T13:37:29.024Z,22.60
2019-05-09T13:39:53.593Z,22.70
2019-05-09T13:42:20.917Z,22.60
2019-05-09T13:44:48.171Z,22.60
2019-05-09T13:47:17.739Z,22.70
2019-05-09T13:49:48.476Z,22.60
2019-05-09T13:52:17.714Z,22.60
2019-05-09T13:54:45.110Z,22.60
2019-05-09T13:57:12.354Z,22.60
2019-05-09T13:59:39.785Z,22.60
2019-05-09T14:02:07.188Z,22.60
2019-05-09T14:04:34.577Z,22.60
2019-05-09T14:07:03.166Z,22.50
2019-05-09T14:09:30.380Z,22.40
2019-05-09T14:11:58.945Z,22.40
2019-05-09T14:14:28.092Z,22.30
2019-05-09T14:16:55.597Z,22.20
2019-05-09T14:19:31.518Z,22.20
2019-05-09T14:21:52.067Z,22.10
2019-05-09T14:24:19.532Z,22.00
2019-05-09T14:26:48.121Z,22.00
2019-05-09T14:29:20.114Z,22.00
2019-05-09T14:31:44.605Z,22.00
2019-05-09T14:34:11.998Z,22.10
2019-05-09T14:36:44.992Z,22.00
2019-05-09T14:39:09.364Z,22.10
2019-05-09T14:41:39.034Z,22.00
2019-05-09T14:44:09.100Z,21.90
2019-05-09T14:46:35.330Z,21.90
2019-05-09T14:49:02.627Z,21.70
2019-05-09T14:51:29.967Z,21.70
2019-05-09T14:53:59.421Z,21.60
2019-05-09T14:56:28.016Z,21.60
2019-05-09T14:58:57.702Z,21.60
2019-05-09T15:01:24.440Z,21.50
2019-05-09T15:03:51.800Z,21.40
2019-05-09T15:06:19.167Z,21.40
2019-05-09T15:08:48.267Z,21.30
2019-05-09T15:11:17.931Z,21.30
2019-05-09T15:13:47.089Z,21.20
2019-05-09T15:16:13.908Z,21.10
2019-05-09T15:18:41.290Z,21.10
2019-05-09T15:21:09.651Z,21.10
2019-05-09T15:23:39.092Z,21.00
2019-05-09T15:26:07.702Z,21.10
2019-05-09T15:28:35.257Z,21.00
2019-05-09T15:31:02.565Z,21.00
2019-05-09T15:33:30.706Z,21.00
2019-05-09T15:35:58.895Z,20.90
2019-05-09T15:38:28.761Z,21.00
2019-05-09T15:40:55.515Z,20.90
2019-05-09T15:43:22.878Z,20.90
2019-05-09T15:46:08.321Z,21.00
2019-05-09T15:48:35.349Z,21.00
2019-05-09T15:51:02.696Z,21.00
2019-05-09T15:53:29.914Z,20.90
2019-05-09T15:55:58.776Z,21.00
2019-05-09T15:58:28.603Z,21.00
2019-05-09T16:00:55.372Z,21.00
2019-05-09T16:03:22.807Z,21.00
2019-05-09T16:06:03.136Z,20.90
2019-05-09T16:08:30.825Z,21.00
2019-05-09T16:10:58.626Z,21.00
2019-05-09T16:13:28.457Z,21.00
2019-05-09T16:15:57.587Z,21.00
2019-05-09T16:18:25.591Z,21.00
2019-05-09T16:20:53.417Z,21.00
2019-05-09T16:23:21.230Z,21.10
2019-05-09T16:25:48.878Z,21.10
2019-05-09T16:28:18.573Z,21.10
2019-05-09T16:30:52.091Z,21.10
2019-05-09T16:33:20.079Z,21.20
2019-05-09T16:35:48.474Z,21.20
2019-05-09T16:38:18.535Z,21.20
2019-05-09T16:40:47.868Z,21.20
2019-05-09T16:43:17.803Z,21.20
2019-05-09T16:45:47.534Z,21.20
2019-05-09T16:48:14.801Z,21.20
2019-05-09T16:50:59.540Z,21.10
2019-05-09T16:53:11.250Z,21.20
2019-05-09T16:55:39.790Z,21.20
2019-05-09T16:58:08.657Z,21.20
2019-05-09T17:00:41.448Z,21.20
2019-05-09T17:03:08.830Z,21.20
2019-05-09T17:05:37.403Z,21.20
2019-05-09T17:08:05.381Z,21.10
2019-05-09T17:10:32.799Z,21.10
2019-05-09T17:13:00.123Z,21.10
2019-05-09T17:15:29.208Z,21.10
2019-05-09T17:17:56.762Z,21.10
2019-05-09T17:20:30.021Z,21.10
2019-05-09T17:23:11.544Z,21.10
2019-05-09T17:25:35.494Z,21.10
2019-05-09T17:28:03.208Z,21.00
2019-05-09T17:30:30.773Z,21.00
2019-05-09T17:32:59.182Z,21.00
2019-05-09T17:35:27.897Z,20.90
2019-05-09T17:37:55.603Z,20.90
2019-05-09T17:40:22.954Z,20.90
2019-05-09T17:42:50.323Z,20.80
2019-05-09T17:45:18.882Z,20.80
2019-05-09T17:47:48.587Z,20.80
2019-05-09T17:50:18.461Z,20.80
2019-05-09T17:52:45.331Z,20.80
2019-05-09T17:55:13.006Z,20.80
2019-05-09T17:57:40.269Z,20.80
2019-05-09T18:00:10.014Z,20.80
2019-05-09T18:02:38.523Z,20.70
2019-05-09T18:05:07.816Z,20.80
2019-05-09T18:07:37.554Z,20.80
2019-05-09T18:10:07.608Z,20.80
2019-05-09T18:12:34.741Z,20.80
2019-05-09T18:15:02.049Z,20.70
2019-05-09T18:17:29.638Z,20.70
2019-05-09T18:19:58.401Z,20.70
2019-05-09T18:22:25.895Z,20.70
2019-05-09T18:24:53.183Z,20.70
2019-05-09T18:27:20.451Z,20.60
2019-05-09T18:29:47.827Z,20.60
2019-05-09T18:32:38.188Z,20.60
2019-05-09T18:35:16.995Z,20.60
2019-05-09T18:37:44.504Z,20.50
2019-05-09T18:40:13.470Z,20.50
2019-05-09T18:42:40.979Z,20.50
2019-05-09T18:45:09.157Z,20.50
2019-05-09T18:47:36.751Z,20.50
2019-05-09T18:50:04.914Z,20.50
2019-05-09T18:52:32.329Z,20.50
2019-05-09T18:54:59.706Z,20.50
2019-05-09T18:57:26.995Z,20.50
2019-05-09T18:59:54.341Z,20.50
2019-05-09T19:02:21.737Z,20.50
2019-05-09T19:04:49.105Z,20.50
2019-05-09T19:07:22.644Z,20.40
2019-05-09T19:09:45.823Z,20.40
2019-05-09T19:12:13.072Z,20.40
2019-05-09T19:14:40.371Z,20.40
2019-05-09T19:17:25.913Z,20.40
2019-05-09T19:20:16.361Z,20.40
2019-05-09T19:22:43.696Z,20.40
2019-05-09T19:25:11.343Z,20.30
2019-05-09T19:27:38.923Z,20.30
2019-05-09T19:30:06.679Z,20.30
2019-05-09T19:32:34.013Z,20.30
2019-05-09T19:35:01.268Z,20.20
2019-05-09T19:37:29.604Z,20.20
2019-05-09T19:39:56.937Z,20.20
2019-05-09T19:42:24.324Z,20.20
2019-05-09T19:44:51.568Z,20.20
2019-05-09T19:47:18.978Z,20.20
2019-05-09T19:49:46.329Z,20.10
2019-05-09T19:52:13.804Z,20.20
2019-05-09T19:54:41.051Z,20.20
2019-05-09T19:57:08.482Z,20.20
2019-05-09T19:59:35.986Z,20.20
2019-05-09T20:02:03.477Z,20.10
2019-05-09T20:04:30.824Z,20.10
2019-05-09T20:06:58.083Z,20.10
2019-05-09T20:09:31.813Z,20.10
2019-05-09T20:12:18.884Z,20.10
2019-05-09T20:14:48.671Z,20.10
2019-05-09T20:17:17.042Z,20.00
2019-05-09T20:19:44.548Z,20.00
2019-05-09T20:22:11.812Z,19.90
2019-05-09T20:24:39.057Z,19.90
2019-05-09T20:27:06.354Z,20.00
2019-05-09T20:29:33.611Z,19.90
2019-05-09T20:32:00.961Z,19.90
2019-05-09T20:34:28.315Z,19.90
2019-05-09T20:36:55.631Z,19.90
2019-05-09T20:39:22.876Z,19.90
2019-05-09T20:41:50.120Z,19.90
2019-05-09T20:44:17.515Z,19.90
2019-05-09T20:46:44.894Z,19.90
2019-05-09T20:49:12.393Z,19.80
2019-05-09T20:51:39.768Z,19.80
2019-05-09T20:54:19.977Z,19.80
2019-05-09T20:56:36.448Z,19.80
2019-05-09T20:59:03.691Z,19.70
2019-05-09T21:01:30.950Z,19.70
2019-05-09T21:04:00.463Z,19.60
2019-05-09T21:06:27.371Z,19.60
2019-05-09T21:08:54.746Z,19.50
2019-05-09T21:11:22.126Z,19.50
2019-05-09T21:13:49.394Z,19.40
2019-05-09T21:16:16.770Z,19.40
2019-05-09T21:18:44.166Z,19.40
2019-05-09T21:21:11.405Z,19.30
2019-05-09T21:23:38.669Z,19.30
2019-05-09T21:26:05.938Z,19.40
2019-05-09T21:28:33.189Z,19.40
2019-05-09T21:31:00.459Z,19.40
2019-05-09T21:33:27.735Z,19.40
2019-05-09T21:35:55.086Z,19.40
2019-05-09T21:38:22.324Z,19.40
2019-05-09T21:40:49.784Z,19.40
2019-05-09T21:43:16.992Z,19.40
2019-05-09T21:45:44.400Z,19.40
2019-05-09T21:48:11.693Z,19.40
2019-05-09T21:50:39.157Z,19.40
2019-05-09T21:53:06.527Z,19.30
2019-05-09T21:55:33.864Z,19.40
2019-05-09T21:58:01.136Z,19.30
2019-05-09T22:00:33.851Z,19.30
2019-05-09T22:03:01.214Z,19.30
2019-05-09T22:05:28.668Z,19.30
2019-05-09T22:07:56.289Z,19.30
2019-05-09T22:10:23.552Z,19.20
2019-05-09T22:12:50.820Z,19.20
2019-05-09T22:15:18.262Z,19.20
2019-05-09T22:17:45.517Z,19.10
2019-05-09T22:20:14.478Z,19.10
2019-05-09T22:22:41.894Z,19.00
2019-05-09T22:25:09.753Z,18.90
2019-05-09T22:27:37.195Z,18.90
2019-05-09T22:30:05.765Z,18.90
2019-05-09T22:32:33.956Z,18.90
2019-05-09T22:35:01.322Z,18.80
2019-05-09T22:37:28.705Z,18.80
2019-05-09T22:39:56.025Z,18.80
2019-05-09T22:42:23.326Z,18.80
2019-05-09T22:44:50.704Z,18.80
2019-05-09T22:47:17.978Z,18.80
2019-05-09T22:49:45.449Z,18.70
2019-05-09T22:52:12.842Z,18.80
2019-05-09T22:54:40.098Z,18.70
2019-05-09T22:57:07.382Z,18.70
2019-05-09T22:59:34.812Z,18.70
2019-05-09T23:02:06.755Z,18.70
2019-05-09T23:04:32.620Z,18.70
2019-05-09T23:06:59.880Z,18.70
2019-05-09T23:09:27.008Z,18.70
2019-05-09T23:11:54.480Z,18.70
2019-05-09T23:14:21.837Z,18.60
2019-05-09T23:16:50.563Z,18.60
2019-05-09T23:19:18.220Z,18.60
2019-05-09T23:21:46.016Z,18.60
2019-05-09T23:24:28.171Z,18.60
2019-05-09T23:26:44.972Z,18.50
2019-05-09T23:29:12.306Z,18.50
2019-05-09T23:31:44.888Z,18.50
2019-05-09T23:34:12.245Z,18.50
2019-05-09T23:36:39.508Z,18.50
2019-05-09T23:39:11.220Z,18.40
2019-05-09T23:41:38.709Z,18.40
2019-05-09T23:44:06.004Z,18.40
2019-05-09T23:46:33.238Z,18.40
2019-05-09T23:49:00.522Z,18.40
2019-05-09T23:51:44.082Z,18.30
2019-05-09T23:54:45.329Z,18.30
2019-05-09T23:57:19.427Z,18.30
